North East, Pennsylvania
Current Conditions -  °F | °C
As of 8:51 AM on Monday 20 Oct 2014 (Local Time) from KERI Reporting Station
Overcast Overcast  
Wind Chill: 43°   Ceiling: 8000
Heat Index: 48°   Visibility: 10mi
Dew Point: 37°   Wind: 13mph
Humidity: 66%   Direction: 190°S
Pressure: 29.92"   Gusts: NA
Location:  42.22°N, 79.83°W
Report Text: KERI 201251Z 19011KT 10SM SCT070 BKN080 OVC100 09/03 A2992 RMK AO2 SLP136 T00890028 $
Loading
Personal Weather Stations






























Interactive Weather Map New forecast layout! Learn more

10-Day Weather Forecast

Advertisements
Track Severe Weather on mobile